createdAt,value
2023-04-02T00:01:23.953Z,97446.88
2023-04-02T00:03:54.004Z,97451.88
2023-04-02T00:06:33.138Z,97454.14
2023-04-02T00:09:04.747Z,97459.05
2023-04-02T00:11:37.594Z,97458.64
2023-04-02T00:14:13.323Z,97460.28
2023-04-02T00:16:40.683Z,97463.98
2023-04-02T00:19:15.542Z,97464.08
2023-04-02T00:21:45.454Z,97467.13
2023-04-02T00:24:17.942Z,97467.69
2023-04-02T00:26:48.041Z,97467.11
2023-04-02T00:29:16.451Z,97468.27
2023-04-02T00:31:46.553Z,97464.63
2023-04-02T00:34:26.217Z,97468.40
2023-04-02T00:36:53.626Z,97465.73
2023-04-02T00:39:33.007Z,97469.41
2023-04-02T00:42:07.577Z,97470.61
2023-04-02T00:44:38.691Z,97470.89
2023-04-02T00:47:24.490Z,97472.17
2023-04-02T00:49:59.996Z,97473.54
2023-04-02T00:52:31.143Z,97470.37
2023-04-02T00:55:05.226Z,97472.50
2023-04-02T00:57:33.713Z,97475.77
2023-04-02T01:00:21.744Z,97476.48
2023-04-02T01:03:20.352Z,97480.38
2023-04-02T01:05:50.464Z,97481.48
2023-04-02T01:08:23.118Z,97482.20
2023-04-02T01:11:20.815Z,97484.84
2023-04-02T01:14:04.056Z,97489.56
2023-04-02T01:16:31.023Z,97489.44
2023-04-02T01:19:06.216Z,97489.23
2023-04-02T01:21:34.040Z,97494.52
2023-04-02T01:24:05.358Z,97491.32
2023-04-02T01:26:48.139Z,97493.54
2023-04-02T01:29:30.660Z,97490.27
2023-04-02T01:32:02.118Z,97487.79
2023-04-02T01:34:31.014Z,97486.24
2023-04-02T01:37:13.303Z,97488.11
2023-04-02T01:40:11.384Z,97490.61
2023-04-02T01:43:08.951Z,97491.52
2023-04-02T01:45:36.903Z,97494.99
2023-04-02T01:48:24.728Z,97495.98
2023-04-02T01:50:55.084Z,97495.70
2023-04-02T01:53:24.675Z,97497.77
2023-04-02T01:55:55.935Z,97500.20
2023-04-02T01:58:27.251Z,97497.77
2023-04-02T02:01:02.349Z,97500.29
2023-04-02T02:03:30.476Z,97501.59
2023-04-02T02:05:58.506Z,97507.70
2023-04-02T02:08:25.590Z,97508.52
2023-04-02T02:10:52.386Z,97510.46
2023-04-02T02:13:19.216Z,97512.36
2023-04-02T02:15:46.674Z,97512.39
2023-04-02T02:18:14.291Z,97514.86
2023-04-02T02:20:42.057Z,97515.23
2023-04-02T02:23:13.076Z,97516.71
2023-04-02T02:25:41.307Z,97515.06
2023-04-02T02:28:15.167Z,97511.92
2023-04-02T02:30:49.262Z,97514.23
2023-04-02T02:33:16.479Z,97515.06
2023-04-02T02:35:52.657Z,97521.44
2023-04-02T02:38:35.569Z,97528.02
2023-04-02T02:41:16.588Z,97523.19
2023-04-02T02:43:53.321Z,97526.35
2023-04-02T02:46:25.448Z,97529.67
2023-04-02T02:48:55.885Z,97537.18
2023-04-02T02:51:44.210Z,97536.03
2023-04-02T02:54:15.421Z,97538.38
2023-04-02T02:56:48.400Z,97541.23
2023-04-02T02:59:17.340Z,97544.52
2023-04-02T03:01:45.851Z,97543.21
2023-04-02T03:04:14.750Z,97547.35
2023-04-02T03:06:41.723Z,97551.09
2023-04-02T03:09:39.869Z,97550.65
2023-04-02T03:12:37.410Z,97553.11
2023-04-02T03:15:27.476Z,97552.41
2023-04-02T03:18:06.298Z,97554.31
2023-04-02T03:20:51.727Z,97552.83
2023-04-02T03:23:37.435Z,97547.42
2023-04-02T03:26:12.437Z,97547.80
2023-04-02T03:28:46.522Z,97551.05
2023-04-02T03:31:24.134Z,97558.45
2023-04-02T03:33:58.530Z,97560.91
2023-04-02T03:36:34.823Z,97563.40
2023-04-02T03:39:06.550Z,97564.59
2023-04-02T03:41:51.032Z,97565.21
2023-04-02T03:44:30.521Z,97568.93
2023-04-02T03:47:06.105Z,97574.80
2023-04-02T03:49:48.103Z,97578.65
2023-04-02T03:52:26.665Z,97579.30
2023-04-02T03:54:57.309Z,97582.42
2023-04-02T03:57:36.505Z,97585.13
2023-04-02T04:00:05.158Z,97587.92
2023-04-02T04:02:49.784Z,97590.91
2023-04-02T04:05:26.249Z,97594.32
2023-04-02T04:07:59.959Z,97595.06
2023-04-02T04:10:29.373Z,97599.45
2023-04-02T04:13:03.106Z,97601.13
2023-04-02T04:15:35.093Z,97600.31
2023-04-02T04:18:19.615Z,97604.73
2023-04-02T04:21:01.288Z,97608.02
2023-04-02T04:23:37.263Z,97607.19
2023-04-02T04:26:31.133Z,97612.36
2023-04-02T04:29:15.625Z,97616.77
2023-04-02T04:31:49.525Z,97623.19
2023-04-02T04:34:23.114Z,97623.58
2023-04-02T04:36:57.515Z,97633.64
2023-04-02T04:39:40.091Z,97634.56
2023-04-02T04:42:11.938Z,97634.63
2023-04-02T04:44:46.565Z,97634.75
2023-04-02T04:47:25.012Z,97632.09
2023-04-02T04:49:56.588Z,97639.44
2023-04-02T04:52:33.764Z,97640.11
2023-04-02T04:55:00.852Z,97639.27
2023-04-02T04:57:34.095Z,97642.45
2023-04-02T05:00:13.061Z,97645.88
2023-04-02T05:02:49.530Z,97647.25
2023-04-02T05:05:21.914Z,97649.11
2023-04-02T05:07:57.877Z,97655.31
2023-04-02T05:10:48.134Z,97657.48
2023-04-02T05:13:29.480Z,97660.13
2023-04-02T05:16:18.759Z,97660.21
2023-04-02T05:18:52.619Z,97660.99
2023-04-02T05:21:38.010Z,97664.77
2023-04-02T05:24:20.927Z,97662.83
2023-04-02T05:26:51.963Z,97671.95
2023-04-02T05:29:25.360Z,97675.98
2023-04-02T05:32:01.556Z,97678.17
2023-04-02T05:34:36.547Z,97681.29
2023-04-02T05:37:09.255Z,97684.69
2023-04-02T05:39:36.599Z,97684.64
2023-04-02T05:42:08.427Z,97681.38
2023-04-02T05:45:09.120Z,97683.23
2023-04-02T05:47:41.221Z,97687.02
2023-04-02T05:50:26.114Z,97689.67
2023-04-02T05:53:06.738Z,97687.34
2023-04-02T05:55:42.207Z,97688.18
2023-04-02T05:58:38.647Z,97689.52
2023-04-02T06:01:21.366Z,97694.72
2023-04-02T06:03:57.403Z,97700.39
2023-04-02T06:06:33.586Z,97705.05
2023-04-02T06:09:09.991Z,97703.45
2023-04-02T06:11:45.734Z,97708.03
2023-04-02T06:14:17.989Z,97719.11
2023-04-02T06:16:46.769Z,97717.88
2023-04-02T06:19:21.714Z,97727.61
2023-04-02T06:21:52.438Z,97735.83
2023-04-02T06:24:26.330Z,97738.42
2023-04-02T06:27:00.794Z,97744.28
2023-04-02T06:29:40.117Z,97755.19
2023-04-02T06:32:12.660Z,97756.89
2023-04-02T06:34:43.097Z,97770.62
2023-04-02T06:37:22.446Z,97770.98
2023-04-02T06:39:53.575Z,97778.68
2023-04-02T06:42:26.605Z,97782.04
2023-04-02T06:45:23.979Z,97790.64
2023-04-02T06:48:17.606Z,97794.27
2023-04-02T06:50:53.065Z,97803.38
2023-04-02T06:53:23.494Z,97804.27
2023-04-02T06:55:58.836Z,97811.80
2023-04-02T06:58:29.367Z,97815.19
2023-04-02T07:00:57.111Z,97822.23
2023-04-02T07:03:34.139Z,97823.59
2023-04-02T07:06:15.503Z,97828.45
2023-04-02T07:08:44.019Z,97836.08
2023-04-02T07:11:18.708Z,97839.70
2023-04-02T07:13:49.449Z,97846.13
2023-04-02T07:16:20.780Z,97851.30
2023-04-02T07:18:49.021Z,97855.30
2023-04-02T07:21:16.518Z,97863.27
2023-04-02T07:23:44.880Z,97869.70
2023-04-02T07:26:17.687Z,97878.15
2023-04-02T07:28:45.064Z,97884.42
2023-04-02T07:31:20.374Z,97892.52
2023-04-02T07:33:47.971Z,97894.48
2023-04-02T07:36:17.820Z,97899.77
2023-04-02T07:38:45.010Z,97906.10
2023-04-02T07:41:12.068Z,97909.98
2023-04-02T07:43:40.001Z,97915.38
2023-04-02T07:46:07.953Z,97919.30
2023-04-02T07:48:34.945Z,97926.23
2023-04-02T07:51:03.444Z,97930.30
2023-04-02T07:53:34.560Z,97934.28
2023-04-02T07:56:03.220Z,97939.49
2023-04-02T07:58:31.515Z,97948.55
2023-04-02T08:00:59.520Z,97947.70
2023-04-02T08:03:26.929Z,97953.41
2023-04-02T08:05:55.971Z,97953.83
2023-04-02T08:08:24.319Z,97955.93
2023-04-02T08:10:51.485Z,97965.41
2023-04-02T08:13:18.770Z,97970.06
2023-04-02T08:15:45.769Z,97972.52
2023-04-02T08:18:12.595Z,97978.15
2023-04-02T08:20:39.704Z,97982.25
2023-04-02T08:23:13.742Z,97984.64
2023-04-02T08:25:40.501Z,97993.04
2023-04-02T08:28:07.490Z,97998.52
2023-04-02T08:30:34.305Z,98000.77
2023-04-02T08:33:01.595Z,98008.13
2023-04-02T08:35:28.378Z,98010.64
2023-04-02T08:37:55.526Z,98012.45
2023-04-02T08:40:32.259Z,98016.36
2023-04-02T08:43:15.806Z,98021.14
2023-04-02T08:46:01.785Z,98023.65
2023-04-02T08:48:32.708Z,98033.00
2023-04-02T08:51:01.976Z,98036.12
2023-04-02T08:53:33.848Z,98040.23
2023-04-02T08:56:10.652Z,98041.97
2023-04-02T08:58:47.026Z,98044.67
2023-04-02T09:01:31.710Z,98051.61
2023-04-02T09:03:59.088Z,98052.38
2023-04-02T09:06:27.950Z,98056.95
2023-04-02T09:08:57.005Z,98065.08
2023-04-02T09:11:33.074Z,98065.98
2023-04-02T09:14:03.455Z,98068.23
2023-04-02T09:16:41.255Z,98074.96
2023-04-02T09:19:17.196Z,98079.21
2023-04-02T09:21:53.031Z,98083.98
2023-04-02T09:24:19.799Z,98087.80
2023-04-02T09:26:46.946Z,98094.65
2023-04-02T09:29:14.123Z,98095.71
2023-04-02T09:31:44.777Z,98103.41
2023-04-02T09:34:32.603Z,98111.64
2023-04-02T09:37:09.681Z,98111.55
2023-04-02T09:39:36.491Z,98117.16
2023-04-02T09:42:08.547Z,98121.30
2023-04-02T09:44:35.661Z,98126.02
2023-04-02T09:47:06.109Z,98129.75
2023-04-02T09:49:36.224Z,98135.60
2023-04-02T09:52:18.461Z,98135.02
2023-04-02T09:54:46.006Z,98137.47
2023-04-02T09:57:25.305Z,98140.12
2023-04-02T10:00:32.096Z,98141.10
2023-04-02T10:03:04.575Z,98145.67
2023-04-02T10:08:18.087Z,98152.52
2023-04-02T10:10:50.086Z,98153.39
2023-04-02T10:13:20.137Z,98157.30
2023-04-02T10:16:03.828Z,98162.20
2023-04-02T10:18:40.250Z,98166.76
2023-04-02T10:21:10.474Z,98165.39
2023-04-02T10:23:37.200Z,98171.73
2023-04-02T10:26:20.439Z,98175.55
2023-04-02T10:28:59.395Z,98181.70
2023-04-02T10:31:34.235Z,98180.51
2023-04-02T10:34:07.430Z,98185.04
2023-04-02T10:36:52.663Z,98187.84
2023-04-02T10:39:39.450Z,98190.63
2023-04-02T10:42:22.945Z,98197.70
2023-04-02T10:45:17.296Z,98197.84
2023-04-02T10:47:53.803Z,98204.95
2023-04-02T10:50:45.792Z,98206.55
2023-04-02T10:53:27.091Z,98213.90
2023-04-02T10:56:03.456Z,98220.18
2023-04-02T10:58:34.520Z,98221.32
2023-04-02T11:01:08.112Z,98223.10
2023-04-02T11:03:40.363Z,98222.98
2023-04-02T11:06:19.006Z,98225.17
2023-04-02T11:08:50.657Z,98229.51
2023-04-02T11:11:22.723Z,98231.89
2023-04-02T11:13:57.204Z,98240.18
2023-04-02T11:16:24.817Z,98240.77
2023-04-02T11:19:22.371Z,98247.07
2023-04-02T11:21:59.305Z,98247.11
2023-04-02T11:24:33.671Z,98252.31
2023-04-02T11:27:11.310Z,98256.00
2023-04-02T11:29:41.100Z,98258.06
2023-04-02T11:32:25.431Z,98261.48
2023-04-02T11:35:05.245Z,98261.79
2023-04-02T11:37:33.809Z,98264.38
2023-04-02T11:40:01.803Z,98266.63
2023-04-02T11:42:29.804Z,98268.98
2023-04-02T11:45:01.140Z,98273.70
2023-04-02T11:47:30.017Z,98273.32
2023-04-02T11:50:01.628Z,98275.56
2023-04-02T11:52:30.722Z,98277.16
2023-04-02T11:55:01.793Z,98280.26
2023-04-02T11:57:51.144Z,98281.86
2023-04-02T12:00:42.207Z,98281.66
2023-04-02T12:03:30.170Z,98286.02
2023-04-02T12:06:10.733Z,98292.52
2023-04-02T12:08:58.311Z,98295.80
2023-04-02T12:11:36.624Z,98298.34
2023-04-02T12:14:23.104Z,98299.39
2023-04-02T12:16:50.059Z,98299.11
2023-04-02T12:19:17.129Z,98300.49
2023-04-02T12:21:47.517Z,98303.25
2023-04-02T12:24:21.527Z,98305.63
2023-04-02T12:26:48.426Z,98307.73
2023-04-02T12:29:30.930Z,98312.86
2023-04-02T12:31:59.873Z,98314.52
2023-04-02T12:34:29.513Z,98318.53
2023-04-02T12:36:59.737Z,98323.45
2023-04-02T12:39:28.505Z,98320.99
2023-04-02T12:41:57.075Z,98324.11
2023-04-02T12:44:27.450Z,98323.91
2023-04-02T12:46:55.482Z,98326.38
2023-04-02T12:49:42.779Z,98325.26
2023-04-02T12:52:13.347Z,98326.48
2023-04-02T12:54:48.724Z,98329.36
2023-04-02T12:57:32.822Z,98333.79
2023-04-02T13:00:25.101Z,98337.77
2023-04-02T13:02:59.385Z,98341.44
2023-04-02T13:05:38.104Z,98350.16
2023-04-02T13:08:06.062Z,98346.89
2023-04-02T13:10:33.192Z,98354.96
2023-04-02T13:13:03.213Z,98354.57
2023-04-02T13:15:33.144Z,98351.27
2023-04-02T13:18:23.236Z,98355.27
2023-04-02T13:20:59.537Z,98355.28
2023-04-02T13:23:27.389Z,98364.32
2023-04-02T13:25:54.991Z,98368.34
2023-04-02T13:28:21.862Z,98369.00
2023-04-02T13:30:48.921Z,98377.23
2023-04-02T13:33:16.233Z,98378.98
2023-04-02T13:35:44.535Z,98381.23
2023-04-02T13:38:11.369Z,98385.08
2023-04-02T13:40:39.175Z,98385.92
2023-04-02T13:43:07.440Z,98387.52
2023-04-02T13:45:38.071Z,98390.52
2023-04-02T13:48:05.883Z,98393.18
2023-04-02T13:50:35.122Z,98397.44
2023-04-02T13:53:10.376Z,98403.63
2023-04-02T13:55:40.840Z,98403.52
2023-04-02T13:58:08.425Z,98408.45
2023-04-02T14:00:37.886Z,98411.19
2023-04-02T14:03:18.601Z,98412.18
2023-04-02T14:05:49.856Z,98414.94
2023-04-02T14:08:46.940Z,98414.34
2023-04-02T14:11:18.898Z,98419.92
2023-04-02T14:13:57.847Z,98425.55
2023-04-02T14:16:43.132Z,98431.34
2023-04-02T14:19:27.877Z,98430.75
2023-04-02T14:22:04.917Z,98433.90
2023-04-02T14:24:47.040Z,98431.58
2023-04-02T14:27:41.806Z,98433.67
2023-04-02T14:30:17.136Z,98435.69
2023-04-02T14:33:01.473Z,98438.62
2023-04-02T14:35:31.548Z,98442.28
2023-04-02T14:38:22.104Z,98447.61
2023-04-02T14:40:54.349Z,98448.02
2023-04-02T14:43:40.350Z,98451.63
2023-04-02T14:46:10.366Z,98453.28
2023-04-02T14:48:47.635Z,98453.55
2023-04-02T14:51:26.418Z,98459.05
2023-04-02T14:54:03.768Z,98463.65
2023-04-02T14:56:36.550Z,98466.32
2023-04-02T14:59:23.988Z,98464.73
2023-04-02T15:01:57.258Z,98468.66
2023-04-02T15:04:31.236Z,98469.08
2023-04-02T15:07:05.028Z,98475.01
2023-04-02T15:09:38.457Z,98479.65
2023-04-02T15:12:14.414Z,98477.52
2023-04-02T15:14:47.762Z,98481.64
2023-04-02T15:17:14.812Z,98478.45
2023-04-02T15:19:41.617Z,98483.97
2023-04-02T15:22:10.393Z,98487.73
2023-04-02T15:24:44.115Z,98491.25
2023-04-02T15:27:27.094Z,98495.65
2023-04-02T15:30:07.914Z,98501.09
2023-04-02T15:32:35.068Z,98505.20
2023-04-02T15:35:12.377Z,98506.35
2023-04-02T15:37:50.659Z,98506.77
2023-04-02T15:40:34.142Z,98514.30
2023-04-02T15:43:26.309Z,98514.81
2023-04-02T15:46:16.082Z,98515.98
2023-04-02T15:48:52.134Z,98522.20
2023-04-02T15:51:35.302Z,98524.59
2023-04-02T15:54:27.018Z,98530.58
2023-04-02T15:57:10.035Z,98535.95
2023-04-02T15:59:51.617Z,98539.27
2023-04-02T16:02:41.666Z,98539.30
2023-04-02T16:05:23.957Z,98544.07
2023-04-02T16:08:07.151Z,98548.80
2023-04-02T16:10:42.089Z,98554.64
2023-04-02T16:13:40.289Z,98558.98
2023-04-02T16:16:15.285Z,98558.00
2023-04-02T16:19:02.720Z,98570.63
2023-04-02T16:21:34.986Z,98569.67
2023-04-02T16:24:01.939Z,98572.02
2023-04-02T16:27:00.198Z,98576.27
2023-04-02T16:29:53.369Z,98577.04
2023-04-02T16:32:44.647Z,98583.48
2023-04-02T16:35:43.018Z,98583.41
2023-04-02T16:38:14.010Z,98588.06
2023-04-02T16:41:04.757Z,98587.71
2023-04-02T16:43:56.025Z,98593.90
2023-04-02T16:46:35.900Z,98595.33
2023-04-02T16:49:20.932Z,98599.35
2023-04-02T16:51:56.979Z,98602.77
2023-04-02T16:54:24.887Z,98605.23
2023-04-02T16:57:15.919Z,98608.48
2023-04-02T16:59:57.602Z,98615.41
2023-04-02T17:02:33.174Z,98616.67
2023-04-02T17:05:32.692Z,98618.96
2023-04-02T17:08:14.909Z,98626.46
2023-04-02T17:11:05.944Z,98625.26
2023-04-02T17:13:42.282Z,98630.44
2023-04-02T17:16:18.466Z,98631.48
2023-04-02T17:18:48.013Z,98637.21
2023-04-02T17:21:19.035Z,98635.79
2023-04-02T17:24:06.454Z,98638.79
2023-04-02T17:26:37.462Z,98644.83
2023-04-02T17:29:09.154Z,98646.46
2023-04-02T17:31:38.035Z,98651.80
2023-04-02T17:34:15.024Z,98652.84
2023-04-02T17:37:00.850Z,98652.37
2023-04-02T17:39:52.747Z,98655.33
2023-04-02T17:42:49.960Z,98658.70
2023-04-02T17:45:28.628Z,98659.07
2023-04-02T17:48:06.274Z,98661.52
2023-04-02T17:50:40.444Z,98664.96
2023-04-02T17:53:22.700Z,98665.44
2023-04-02T17:56:06.955Z,98668.37
2023-04-02T17:58:52.504Z,98674.83
2023-04-02T18:01:28.864Z,98678.62
2023-04-02T18:04:12.597Z,98676.98
2023-04-02T18:06:39.533Z,98677.89
2023-04-02T18:09:27.497Z,98680.05
2023-04-02T18:12:09.852Z,98683.69
2023-04-02T18:14:53.276Z,98682.41
2023-04-02T18:17:46.359Z,98687.09
2023-04-02T18:20:28.779Z,98691.77
2023-04-02T18:23:10.781Z,98695.34
2023-04-02T18:25:42.870Z,98699.64
2023-04-02T18:28:23.563Z,98699.98
2023-04-02T18:30:59.048Z,98702.73
2023-04-02T18:33:39.526Z,98708.45
2023-04-02T18:36:11.474Z,98705.73
2023-04-02T18:38:46.406Z,98708.02
2023-04-02T18:41:15.351Z,98710.73
2023-04-02T18:43:57.613Z,98712.31
2023-04-02T18:46:24.476Z,98718.14
2023-04-02T18:49:14.121Z,98718.64
2023-04-02T18:51:41.711Z,98724.14
2023-04-02T18:54:09.680Z,98726.84
2023-04-02T18:56:38.968Z,98731.23
2023-04-02T18:59:06.957Z,98731.55
2023-04-02T19:01:39.224Z,98734.80
2023-04-02T19:04:09.816Z,98735.73
2023-04-02T19:06:41.947Z,98739.16
2023-04-02T19:09:24.307Z,98737.15
2023-04-02T19:11:53.104Z,98742.23
2023-04-02T19:14:23.335Z,98743.85
2023-04-02T19:17:21.417Z,98741.66
2023-04-02T19:19:55.730Z,98745.32
2023-04-02T19:22:37.398Z,98748.34
2023-04-02T19:25:04.176Z,98750.77
2023-04-02T19:27:39.273Z,98756.77
2023-04-02T19:30:24.664Z,98752.95
2023-04-02T19:32:51.388Z,98755.55
2023-04-02T19:35:34.952Z,98759.58
2023-04-02T19:38:25.046Z,98761.17
2023-04-02T19:41:07.337Z,98761.19
2023-04-02T19:43:34.142Z,98763.27
2023-04-02T19:46:02.726Z,98761.52
2023-04-02T19:48:51.586Z,98763.67
2023-04-02T19:51:18.385Z,98762.80
2023-04-02T19:53:45.104Z,98764.47
2023-04-02T19:56:11.901Z,98768.11
2023-04-02T19:58:38.659Z,98766.73
2023-04-02T20:01:05.647Z,98773.50
2023-04-02T20:03:32.753Z,98769.95
2023-04-02T20:06:00.136Z,98774.52
2023-04-02T20:08:27.783Z,98770.98
2023-04-02T20:10:55.833Z,98777.44
2023-04-02T20:13:22.626Z,98775.08
2023-04-02T20:15:51.357Z,98775.46
2023-04-02T20:18:20.267Z,98779.35
2023-04-02T20:20:48.805Z,98784.63
2023-04-02T20:23:16.926Z,98781.92
2023-04-02T20:25:52.863Z,98789.33
2023-04-02T20:28:21.520Z,98790.61
2023-04-02T20:30:50.263Z,98792.12
2023-04-02T20:33:19.471Z,98788.93
2023-04-02T20:35:47.242Z,98794.70
2023-04-02T20:38:14.054Z,98797.23
2023-04-02T20:40:42.183Z,98800.63
2023-04-02T20:43:10.202Z,98804.17
2023-04-02T20:45:38.125Z,98803.41
2023-04-02T20:48:05.241Z,98809.95
2023-04-02T20:50:32.613Z,98807.80
2023-04-02T20:53:00.242Z,98809.67
2023-04-02T20:55:27.069Z,98808.72
2023-04-02T20:57:54.098Z,98809.67
2023-04-02T21:00:21.183Z,98808.14
2023-04-02T21:02:48.023Z,98815.27
2023-04-02T21:05:14.980Z,98815.23
2023-04-02T21:07:41.752Z,98819.38
2023-04-02T21:10:09.311Z,98822.51
2023-04-02T21:12:36.108Z,98823.98
2023-04-02T21:15:03.226Z,98825.23
2023-04-02T21:17:30.369Z,98825.69
2023-04-02T21:19:57.235Z,98827.99
2023-04-02T21:22:23.954Z,98830.97
2023-04-02T21:24:50.818Z,98832.14
2023-04-02T21:27:17.886Z,98833.31
2023-04-02T21:29:44.619Z,98833.94
2023-04-02T21:32:20.731Z,98835.58
2023-04-02T21:34:48.385Z,98837.23
2023-04-02T21:37:15.510Z,98834.73
2023-04-02T21:39:42.401Z,98840.73
2023-04-02T21:42:11.199Z,98842.52
2023-04-02T21:44:37.983Z,98836.17
2023-04-02T21:47:04.811Z,98843.96
2023-04-02T21:49:31.617Z,98844.95
2023-04-02T21:51:58.415Z,98849.52
2023-04-02T21:54:25.328Z,98847.42
2023-04-02T21:56:52.820Z,98843.60
2023-04-02T21:59:19.718Z,98849.41
2023-04-02T22:01:50.516Z,98848.54
2023-04-02T22:04:20.730Z,98853.88
2023-04-02T22:06:47.669Z,98859.98
2023-04-02T22:09:18.411Z,98856.33
2023-04-02T22:11:48.278Z,98856.91
2023-04-02T22:14:15.784Z,98867.74
2023-04-02T22:16:43.692Z,98866.48
2023-04-02T22:19:13.722Z,98866.86
2023-04-02T22:21:41.424Z,98873.81
2023-04-02T22:24:12.576Z,98875.05
2023-04-02T22:26:40.493Z,98876.63
2023-04-02T22:29:08.042Z,98879.61
2023-04-02T22:31:35.390Z,98878.45
2023-04-02T22:34:04.600Z,98889.48
2023-04-02T22:36:31.893Z,98889.04
2023-04-02T22:39:00.139Z,98889.59
2023-04-02T22:41:29.068Z,98893.80
2023-04-02T22:43:57.216Z,98891.07
2023-04-02T22:46:25.649Z,98891.89
2023-04-02T22:48:53.421Z,98897.80
2023-04-02T22:51:22.576Z,98898.16
2023-04-02T22:53:50.215Z,98898.23
2023-04-02T22:56:19.644Z,98896.49
2023-04-02T22:58:46.462Z,98901.80
2023-04-02T23:01:18.124Z,98899.35
2023-04-02T23:03:45.145Z,98902.59
2023-04-02T23:06:14.398Z,98900.19
2023-04-02T23:08:41.315Z,98898.22
2023-04-02T23:11:14.290Z,98899.66
2023-04-02T23:13:42.130Z,98899.77
2023-04-02T23:16:12.650Z,98898.73
2023-04-02T23:18:42.332Z,98898.11
2023-04-02T23:21:09.891Z,98902.25
2023-04-02T23:23:37.434Z,98900.69
2023-04-02T23:26:04.407Z,98903.94
2023-04-02T23:28:31.233Z,98902.46
2023-04-02T23:30:58.046Z,98904.77
2023-04-02T23:33:24.847Z,98900.71
2023-04-02T23:35:51.855Z,98903.66
2023-04-02T23:38:18.592Z,98905.05
2023-04-02T23:40:45.437Z,98904.38
2023-04-02T23:43:12.205Z,98902.84
2023-04-02T23:45:39.198Z,98903.59
2023-04-02T23:48:06.245Z,98902.20
2023-04-02T23:50:33.180Z,98905.56
2023-04-02T23:53:00.274Z,98905.09
2023-04-02T23:55:27.141Z,98909.92
2023-04-02T23:57:53.936Z,98908.98
